createdAt,value
2022-08-12T00:00:34.785Z,9.711690
2022-08-12T00:02:02.644Z,9.711682
2022-08-12T00:02:35.753Z,9.711695
2022-08-12T00:03:34.815Z,9.711770
2022-08-12T00:04:34.738Z,9.711680
2022-08-12T00:05:34.733Z,9.711678
2022-08-12T00:06:34.731Z,9.711697
2022-08-12T00:07:34.730Z,9.711651
2022-08-12T00:08:37.021Z,9.711652
2022-08-12T00:09:34.700Z,9.711654
2022-08-12T00:10:34.692Z,9.711658
2022-08-12T00:11:34.687Z,9.711742
2022-08-12T00:12:34.738Z,9.711675
2022-08-12T00:13:34.659Z,9.711627
2022-08-12T00:14:35.658Z,9.711611
2022-08-12T00:15:34.651Z,9.711507
2022-08-12T00:16:34.648Z,9.711621
2022-08-12T00:17:34.658Z,9.711589
2022-08-12T00:18:34.629Z,9.711654
2022-08-12T00:19:34.625Z,9.711814
2022-08-12T00:20:34.616Z,9.711820
2022-08-12T00:21:35.859Z,9.711728
2022-08-12T00:22:34.682Z,9.711723
2022-08-12T00:23:34.591Z,9.711772
2022-08-12T00:24:34.588Z,9.711604
2022-08-12T00:26:01.392Z,9.711694
2022-08-12T00:26:35.563Z,9.711753
2022-08-12T00:27:43.978Z,9.711704
2022-08-12T00:28:35.558Z,9.711568
2022-08-12T00:29:34.553Z,9.711594
2022-08-12T00:30:34.544Z,9.711633
2022-08-12T00:46:36.450Z,9.711323
2022-08-12T00:47:36.444Z,9.711580
2022-08-12T00:48:36.415Z,9.711576
2022-08-12T00:49:36.411Z,9.711733
2022-08-12T00:50:36.417Z,9.711697
2022-08-12T00:51:36.402Z,9.712080
2022-08-12T00:52:36.387Z,9.711972
2022-08-12T00:53:36.387Z,9.711755
2022-08-12T00:54:36.375Z,9.711844
2022-08-12T00:55:36.382Z,9.711472
2022-08-12T00:56:36.360Z,9.711486
2022-08-12T00:57:37.326Z,9.711465
2022-08-12T00:58:36.340Z,9.711517
2022-08-12T00:59:36.330Z,9.711429
2022-08-12T01:00:36.334Z,9.711587
2022-08-12T01:02:02.422Z,9.711782
2022-08-12T01:02:37.310Z,9.711662
2022-08-12T01:03:36.300Z,9.711607
2022-08-12T01:04:36.300Z,9.711587
2022-08-12T01:05:36.294Z,9.711458
2022-08-12T01:06:36.279Z,9.711492
2022-08-12T01:07:36.265Z,9.711418
2022-08-12T01:08:36.248Z,9.711535
2022-08-12T01:09:36.251Z,9.711547
2022-08-12T01:10:36.244Z,9.711513
2022-08-12T01:11:36.234Z,9.711461
2022-08-12T01:12:36.217Z,9.711455
2022-08-12T01:13:36.207Z,9.711400
2022-08-12T01:14:36.207Z,9.711548
2022-08-12T01:15:36.193Z,9.711687
2022-08-12T01:16:36.190Z,9.711667
2022-08-12T01:17:36.188Z,9.711628
2022-08-12T01:18:36.180Z,9.711897
2022-08-12T01:19:36.827Z,9.711722
2022-08-12T01:20:36.162Z,9.711631
2022-08-12T01:21:36.147Z,9.711768
2022-08-12T01:22:36.137Z,9.711614
2022-08-12T01:23:36.142Z,9.711544
2022-08-12T01:24:36.134Z,9.711302
2022-08-12T01:25:41.052Z,9.711460
2022-08-12T01:26:38.109Z,9.711801
2022-08-12T01:27:36.098Z,9.712286
2022-08-12T01:28:36.085Z,9.712426
2022-08-12T01:29:36.075Z,9.712512
2022-08-12T01:30:36.073Z,9.712453
2022-08-12T01:31:36.071Z,9.711989
2022-08-12T01:32:36.065Z,9.711778
2022-08-12T01:33:36.039Z,9.711722
2022-08-12T01:34:37.397Z,9.711678
2022-08-12T01:35:36.032Z,9.711646
2022-08-12T01:36:36.037Z,9.711644
2022-08-12T01:37:36.027Z,9.711587
2022-08-12T01:38:36.000Z,9.711631
2022-08-12T01:39:36.038Z,9.711515
2022-08-12T01:40:37.866Z,9.711691
2022-08-12T01:41:36.995Z,9.711759
2022-08-12T01:42:35.977Z,9.711660
2022-08-12T01:43:35.967Z,9.711666
2022-08-12T01:44:35.958Z,9.711658
2022-08-12T01:45:40.666Z,9.711722
2022-08-12T01:46:36.945Z,9.711691
2022-08-12T01:47:35.945Z,9.711667
2022-08-12T01:48:35.910Z,9.711719
2022-08-12T01:49:35.912Z,9.711628
2022-08-12T01:50:35.912Z,9.711618
2022-08-12T01:52:15.305Z,9.711541
2022-08-12T01:52:36.888Z,9.711621
2022-08-12T01:53:50.760Z,9.711702
2022-08-12T01:54:36.869Z,9.711862
2022-08-12T01:55:35.877Z,9.711700
2022-08-12T01:56:35.850Z,9.711677
2022-08-12T01:57:57.740Z,9.711553
2022-08-12T01:58:36.844Z,9.711614
2022-08-12T01:59:35.826Z,9.711864
2022-08-12T02:00:43.333Z,9.711622
2022-08-12T02:01:36.841Z,9.711823
2022-08-12T02:02:35.854Z,9.711695
2022-08-12T02:03:35.810Z,9.711652
2022-08-12T02:04:35.794Z,9.711686
2022-08-12T02:05:35.782Z,9.711666
2022-08-12T02:06:35.776Z,9.711681
2022-08-12T02:07:35.770Z,9.711791
2022-08-12T02:08:35.766Z,9.711660
2022-08-12T02:09:35.780Z,9.711639
2022-08-12T02:10:50.314Z,9.711637
2022-08-12T02:11:36.749Z,9.711661
2022-08-12T02:12:35.729Z,9.711619
2022-08-12T02:13:48.522Z,9.711627
2022-08-12T02:14:38.422Z,9.711592
2022-08-12T02:15:35.704Z,9.711561
2022-08-12T02:16:35.703Z,9.711598
2022-08-12T02:17:55.852Z,9.711609
2022-08-12T02:18:36.690Z,9.711598
2022-08-12T02:19:35.687Z,9.711605
2022-08-12T02:20:50.882Z,9.711627
2022-08-12T02:21:36.659Z,9.711600
2022-08-12T02:22:35.647Z,9.711646
2022-08-12T02:23:35.636Z,9.711634
2022-08-12T02:24:35.639Z,9.711652
2022-08-12T02:25:35.630Z,9.711426
2022-08-12T02:26:35.620Z,9.711544
2022-08-12T02:27:35.625Z,9.711468
2022-08-12T02:28:35.609Z,9.711623
2022-08-12T02:29:35.600Z,9.711802
2022-08-12T02:30:41.586Z,9.711789
2022-08-12T02:31:36.583Z,9.711497
2022-08-12T02:32:35.598Z,9.711297
2022-08-12T02:33:35.559Z,9.711537
2022-08-12T02:34:35.551Z,9.711535
2022-08-12T02:35:35.549Z,9.711667
2022-08-12T02:36:35.533Z,9.711540
2022-08-12T02:37:35.531Z,9.711681
2022-08-12T02:38:35.511Z,9.711666
2022-08-12T02:39:35.567Z,9.711646
2022-08-12T02:40:35.501Z,9.711673
2022-08-12T02:41:35.489Z,9.711562
2022-08-12T02:42:35.545Z,9.711502
2022-08-12T02:43:35.471Z,9.711528
2022-08-12T02:44:35.463Z,9.711660
2022-08-12T02:45:35.458Z,9.711603
2022-08-12T02:46:35.449Z,9.711742
2022-08-12T02:48:00.048Z,9.711715
2022-08-12T02:48:36.474Z,9.711694
2022-08-12T02:49:35.434Z,9.711716
2022-08-12T02:50:35.428Z,9.711693
2022-08-12T02:51:35.419Z,9.711525
2022-08-12T02:52:35.522Z,9.711596
2022-08-12T02:53:36.969Z,9.711619
2022-08-12T02:54:35.386Z,9.711685
2022-08-12T02:55:35.388Z,9.711609
2022-08-12T02:56:35.385Z,9.711621
2022-08-12T02:57:35.373Z,9.711679
2022-08-12T02:58:35.371Z,9.711512
2022-08-12T02:59:35.352Z,9.711667
2022-08-12T03:00:35.336Z,9.711756
2022-08-12T03:01:35.414Z,9.711743
2022-08-12T03:02:36.325Z,9.712429
2022-08-12T03:03:35.326Z,9.712353
2022-08-12T03:04:37.894Z,9.712057
2022-08-12T03:05:38.430Z,9.711749
2022-08-12T03:06:36.291Z,9.711671
2022-08-12T03:07:56.463Z,9.711740
2022-08-12T03:08:36.273Z,9.711628
2022-08-12T03:10:03.806Z,9.711690
2022-08-12T03:10:37.509Z,9.711518
2022-08-12T03:11:37.744Z,9.711244
2022-08-12T03:12:35.350Z,9.711649
2022-08-12T03:13:36.221Z,9.712180
2022-08-12T03:14:35.231Z,9.712646
2022-08-12T03:15:35.221Z,9.713105
2022-08-12T03:16:36.922Z,9.712727
2022-08-12T03:17:35.202Z,9.712352
2022-08-12T03:18:35.862Z,9.712070
2022-08-12T03:19:35.182Z,9.711808
2022-08-12T03:20:35.183Z,9.711630
2022-08-12T03:21:55.369Z,9.711533
2022-08-12T03:22:36.157Z,9.711411
2022-08-12T03:23:35.142Z,9.711289
2022-08-12T03:24:35.139Z,9.711316
2022-08-12T03:25:35.137Z,9.711833
2022-08-12T03:26:35.123Z,9.711864
2022-08-12T03:27:35.130Z,9.711856
2022-08-12T03:28:35.873Z,9.711826
2022-08-12T03:29:50.162Z,9.711769
2022-08-12T03:30:36.097Z,9.711781
2022-08-12T03:31:35.182Z,9.711770
2022-08-12T03:32:36.697Z,9.711744
2022-08-12T03:33:35.069Z,9.711677
2022-08-12T03:34:35.068Z,9.711619
2022-08-12T03:35:40.245Z,9.711960
2022-08-12T03:36:36.187Z,9.712123
2022-08-12T03:37:35.055Z,9.711804
2022-08-12T03:38:35.027Z,9.711614
2022-08-12T03:39:36.158Z,9.711627
2022-08-12T03:40:35.014Z,9.711626
2022-08-12T03:41:35.020Z,9.711636
2022-08-12T03:42:35.009Z,9.711613
2022-08-12T03:43:35.003Z,9.711669
2022-08-12T03:44:34.977Z,9.711653
2022-08-12T03:45:34.962Z,9.711657
2022-08-12T03:46:35.973Z,9.711629
2022-08-12T03:47:34.967Z,9.711617
2022-08-12T03:48:34.977Z,9.711617
2022-08-12T03:49:34.949Z,9.711630
2022-08-12T03:50:34.926Z,9.711631
2022-08-12T03:51:34.911Z,9.711601
2022-08-12T03:52:34.943Z,9.711652
2022-08-12T03:53:34.906Z,9.711562
2022-08-12T03:54:38.234Z,9.711584
2022-08-12T03:55:35.881Z,9.711601
2022-08-12T03:56:34.882Z,9.711607
2022-08-12T03:57:34.892Z,9.711617
2022-08-12T03:58:34.859Z,9.711619
2022-08-12T03:59:34.860Z,9.711638
2022-08-12T04:00:34.889Z,9.711680
2022-08-12T04:01:40.753Z,9.711680
2022-08-12T04:02:35.830Z,9.711656
2022-08-12T04:03:34.827Z,9.711663
2022-08-12T04:04:34.912Z,9.711635
2022-08-12T04:05:56.227Z,9.711656
2022-08-12T04:06:36.070Z,9.711665
2022-08-12T04:07:34.805Z,9.711633
2022-08-12T04:08:34.777Z,9.711684
2022-08-12T04:09:34.772Z,9.711646
2022-08-12T04:10:34.772Z,9.711559
2022-08-12T04:11:34.755Z,9.711618
2022-08-12T04:12:35.785Z,9.711567
2022-08-12T04:13:34.744Z,9.711605
2022-08-12T04:14:34.745Z,9.711535
2022-08-12T04:15:34.718Z,9.711678
2022-08-12T04:16:34.720Z,9.711676
2022-08-12T04:17:34.735Z,9.711651
2022-08-12T04:18:34.696Z,9.711720
2022-08-12T04:19:34.701Z,9.711738
2022-08-12T04:20:34.682Z,9.711607
2022-08-12T04:21:34.695Z,9.711512
2022-08-12T04:22:34.702Z,9.711480
2022-08-12T04:23:34.655Z,9.711714
2022-08-12T04:24:35.407Z,9.711539
2022-08-12T04:25:34.637Z,9.711472
2022-08-12T04:26:34.629Z,9.711628
2022-08-12T04:27:34.648Z,9.711735
2022-08-12T04:28:34.633Z,9.711822
2022-08-12T04:30:21.459Z,9.711682
2022-08-12T04:30:35.596Z,9.711615
2022-08-12T04:31:34.606Z,9.711555
2022-08-12T04:32:34.595Z,9.711539
2022-08-12T04:33:34.583Z,9.711533
2022-08-12T04:34:34.567Z,9.711524
2022-08-12T04:35:35.381Z,9.711520
2022-08-12T04:36:34.552Z,9.711619
2022-08-12T04:37:59.045Z,9.711563
2022-08-12T04:38:35.537Z,9.711745
2022-08-12T04:39:34.591Z,9.711699
2022-08-12T04:40:34.512Z,9.711823
2022-08-12T04:41:34.502Z,9.711476
2022-08-12T04:42:34.499Z,9.711615
2022-08-12T04:44:00.724Z,9.711556
2022-08-12T04:44:35.487Z,9.711317
2022-08-12T04:45:34.473Z,9.711767
2022-08-12T04:46:34.802Z,9.712047
2022-08-12T04:47:34.458Z,9.711720
2022-08-12T04:48:34.457Z,9.711879
2022-08-12T04:49:34.448Z,9.712270
2022-08-12T04:50:37.053Z,9.711908
2022-08-12T04:51:34.418Z,9.711868
2022-08-12T04:52:35.021Z,9.711945
2022-08-12T04:53:35.415Z,9.711905
2022-08-12T04:54:34.403Z,9.711772
2022-08-12T04:55:34.443Z,9.711545
2022-08-12T04:56:35.655Z,9.711690
2022-08-12T04:57:34.390Z,9.712000
2022-08-12T04:58:34.375Z,9.712051
2022-08-12T04:59:47.809Z,9.712186
2022-08-12T05:00:35.352Z,9.711977
2022-08-12T05:01:34.361Z,9.711749
2022-08-12T05:02:34.493Z,9.711625
2022-08-12T05:03:45.912Z,9.711721
2022-08-12T05:04:35.359Z,9.711865
2022-08-12T05:05:36.258Z,9.711975
2022-08-12T05:06:35.307Z,9.711924
2022-08-12T05:07:34.313Z,9.711927
2022-08-12T05:08:35.297Z,9.711907
2022-08-12T05:09:58.840Z,9.711865
2022-08-12T05:10:36.039Z,9.711599
2022-08-12T05:11:34.267Z,9.711646
2022-08-12T05:12:34.308Z,9.711709
2022-08-12T05:13:34.246Z,9.712012
2022-08-12T05:14:37.489Z,9.711700
2022-08-12T05:15:36.033Z,9.711362
2022-08-12T05:16:36.187Z,9.711545
2022-08-12T05:17:34.221Z,9.711681
2022-08-12T05:18:35.090Z,9.711944
2022-08-12T05:19:35.210Z,9.712083
2022-08-12T05:20:34.199Z,9.712009
2022-08-12T05:21:34.180Z,9.712328
2022-08-12T05:22:36.954Z,9.712302
2022-08-12T05:23:34.165Z,9.712171
2022-08-12T05:24:34.159Z,9.712246
2022-08-12T05:25:34.157Z,9.712111
2022-08-12T05:26:34.133Z,9.711939
2022-08-12T05:27:34.137Z,9.711813
2022-08-12T05:28:34.127Z,9.711601
2022-08-12T05:30:07.165Z,9.711584
2022-08-12T05:30:35.107Z,9.711694
2022-08-12T05:31:45.536Z,9.711721
2022-08-12T05:32:35.092Z,9.711739
2022-08-12T05:33:34.077Z,9.711782
2022-08-12T05:34:34.082Z,9.711738
2022-08-12T05:35:34.073Z,9.711174
2022-08-12T05:36:34.057Z,9.711479
2022-08-12T05:37:34.063Z,9.711450
2022-08-12T05:38:34.044Z,9.711602
2022-08-12T05:39:34.047Z,9.711606
2022-08-12T05:40:34.026Z,9.711605
2022-08-12T05:41:34.017Z,9.711572
2022-08-12T05:42:34.674Z,9.711719
2022-08-12T05:43:34.004Z,9.711597
2022-08-12T05:44:33.999Z,9.711436
2022-08-12T05:45:33.996Z,9.711753
2022-08-12T05:46:33.998Z,9.711859
2022-08-12T05:47:42.768Z,9.711853
2022-08-12T05:48:34.971Z,9.711700
2022-08-12T05:49:34.994Z,9.711695
2022-08-12T05:50:33.950Z,9.711768
2022-08-12T05:51:40.129Z,9.711764
2022-08-12T05:52:35.029Z,9.711675
2022-08-12T05:53:33.927Z,9.711803
2022-08-12T05:54:56.185Z,9.711969
2022-08-12T05:55:35.938Z,9.711941
2022-08-12T05:56:33.895Z,9.712044
2022-08-12T05:57:33.897Z,9.711792
2022-08-12T05:58:33.881Z,9.711779
2022-08-12T05:59:33.879Z,9.711849
2022-08-12T06:00:33.864Z,9.711708
2022-08-12T06:02:10.686Z,9.711596
2022-08-12T06:02:34.863Z,9.711618
2022-08-12T06:03:33.957Z,9.711697
2022-08-12T06:04:33.832Z,9.711533
2022-08-12T06:05:33.821Z,9.711367
2022-08-12T06:06:39.125Z,9.711597
2022-08-12T06:07:59.630Z,9.711746
2022-08-12T06:08:34.800Z,9.711758
2022-08-12T06:09:33.792Z,9.711777
2022-08-12T06:10:33.815Z,9.712291
2022-08-12T06:11:34.492Z,9.712132
2022-08-12T06:12:33.774Z,9.712013
2022-08-12T06:13:54.339Z,9.712130
2022-08-12T06:14:34.758Z,9.712725
2022-08-12T06:15:33.751Z,9.712444
2022-08-12T06:16:33.733Z,9.711725
2022-08-12T06:17:33.753Z,9.712130
2022-08-12T06:18:33.728Z,9.711752
2022-08-12T06:20:28.036Z,9.711964
2022-08-12T06:20:34.753Z,9.711211
2022-08-12T06:21:33.707Z,9.711589
2022-08-12T06:22:33.688Z,9.711377
2022-08-12T06:23:33.687Z,9.711313
2022-08-12T06:24:33.672Z,9.711359
2022-08-12T06:25:33.670Z,9.711361
2022-08-12T06:26:33.657Z,9.711588
2022-08-12T06:27:33.681Z,9.711393
2022-08-12T06:28:33.642Z,9.711517
2022-08-12T06:30:07.273Z,9.711360
2022-08-12T06:30:38.069Z,9.711354
2022-08-12T06:31:34.634Z,9.711227
2022-08-12T06:32:34.618Z,9.711462
2022-08-12T06:33:55.073Z,9.711344
2022-08-12T06:35:24.027Z,9.711774
2022-08-12T06:35:48.438Z,9.711486
2022-08-12T06:36:34.590Z,9.711377
2022-08-12T06:37:33.567Z,9.711499
2022-08-12T06:38:33.620Z,9.711251
2022-08-12T06:39:33.636Z,9.711667
2022-08-12T06:40:33.624Z,9.711473
2022-08-12T06:41:33.536Z,9.711715
2022-08-12T06:42:33.675Z,9.711577
2022-08-12T06:44:06.864Z,9.711607
2022-08-12T06:44:34.555Z,9.711576
2022-08-12T06:45:45.222Z,9.711564
2022-08-12T06:46:34.504Z,9.711602
2022-08-12T06:47:33.486Z,9.711640
2022-08-12T06:48:33.479Z,9.711603
2022-08-12T06:49:33.538Z,9.711652
2022-08-12T06:50:38.109Z,9.711517
2022-08-12T06:51:33.472Z,9.711587
2022-08-12T06:52:33.462Z,9.711613
2022-08-12T06:53:34.021Z,9.711689
2022-08-12T06:54:33.446Z,9.711547
2022-08-12T06:55:33.432Z,9.711624
2022-08-12T06:57:02.937Z,9.711608
2022-08-12T06:58:05.262Z,9.711642
2022-08-12T06:58:34.454Z,9.711664
2022-08-12T06:59:33.404Z,9.711656
2022-08-12T07:00:33.494Z,9.711656
2022-08-12T07:01:33.493Z,9.711663
2022-08-12T07:02:36.877Z,9.711632
2022-08-12T07:03:34.366Z,9.711640
2022-08-12T07:04:37.876Z,9.711627
2022-08-12T07:05:35.374Z,9.711674
2022-08-12T07:06:33.333Z,9.711659
2022-08-12T07:07:33.330Z,9.711689
2022-08-12T07:08:33.321Z,9.711657
2022-08-12T07:10:05.528Z,9.711654
2022-08-12T07:10:34.315Z,9.711679
2022-08-12T07:11:33.296Z,9.711759
2022-08-12T07:12:33.293Z,9.711674
2022-08-12T07:13:33.277Z,9.711624
2022-08-12T07:14:35.411Z,9.711622
2022-08-12T07:15:34.269Z,9.711717
2022-08-12T07:16:33.263Z,9.711674
2022-08-12T07:17:33.269Z,9.711712
2022-08-12T07:18:33.232Z,9.711763
2022-08-12T07:19:40.686Z,9.711662
2022-08-12T07:20:51.744Z,9.711623
2022-08-12T07:22:00.014Z,9.711576
2022-08-12T07:22:34.211Z,9.711875
2022-08-12T07:23:33.196Z,9.711543
2022-08-12T07:24:33.196Z,9.711546
2022-08-12T07:25:37.403Z,9.711582
2022-08-12T07:26:34.181Z,9.711776
2022-08-12T07:27:33.183Z,9.711653
2022-08-12T07:28:33.163Z,9.711753
2022-08-12T07:29:58.125Z,9.711957
2022-08-12T07:30:34.170Z,9.711725
2022-08-12T07:31:34.028Z,9.711982
2022-08-12T07:32:33.119Z,9.711694
2022-08-12T07:33:33.113Z,9.711532
2022-08-12T07:34:33.146Z,9.711645
2022-08-12T07:35:33.144Z,9.711568
2022-08-12T07:36:33.087Z,9.711478
2022-08-12T07:37:33.098Z,9.711431
2022-08-12T07:38:33.110Z,9.711468
2022-08-12T07:39:33.117Z,9.711410
2022-08-12T07:40:33.067Z,9.711639
2022-08-12T07:41:33.055Z,9.711919
2022-08-12T07:42:33.040Z,9.711804
2022-08-12T07:43:33.036Z,9.712215
2022-08-12T07:44:33.013Z,9.711787
2022-08-12T07:45:34.039Z,9.711674
2022-08-12T07:46:33.554Z,9.711695
2022-08-12T07:47:33.029Z,9.711604
2022-08-12T07:48:32.989Z,9.711532
2022-08-12T07:49:33.004Z,9.711551
2022-08-12T07:50:33.984Z,9.711454
2022-08-12T07:51:32.999Z,9.711640
2022-08-12T07:52:32.979Z,9.711922
2022-08-12T07:53:32.948Z,9.711791
2022-08-12T07:54:33.943Z,9.711637
2022-08-12T07:55:32.956Z,9.711603
2022-08-12T07:56:32.941Z,9.711555
2022-08-12T07:57:32.951Z,9.711587
2022-08-12T07:58:32.913Z,9.711600
2022-08-12T07:59:32.908Z,9.711619
2022-08-12T08:00:32.920Z,9.711639
2022-08-12T08:01:33.003Z,9.711671
2022-08-12T08:02:32.884Z,9.711707
2022-08-12T08:03:32.911Z,9.711729
2022-08-12T08:04:32.872Z,9.711803
2022-08-12T08:05:32.870Z,9.711712
2022-08-12T08:06:32.855Z,9.711717
2022-08-12T08:07:32.861Z,9.711823
2022-08-12T08:08:32.859Z,9.711761
2022-08-12T08:09:32.832Z,9.711669
2022-08-12T08:10:32.818Z,9.711669
2022-08-12T08:11:32.823Z,9.711649
2022-08-12T08:12:32.811Z,9.711671
2022-08-12T08:13:32.838Z,9.711656
2022-08-12T08:14:32.811Z,9.711654
2022-08-12T08:16:02.902Z,9.711646
2022-08-12T08:16:34.775Z,9.711669
2022-08-12T08:17:32.775Z,9.711685
2022-08-12T08:18:33.768Z,9.711707
2022-08-12T08:19:32.751Z,9.711679
2022-08-12T08:20:32.751Z,9.711680
2022-08-12T08:21:32.740Z,9.711654
2022-08-12T08:22:41.511Z,9.711661
2022-08-12T08:23:35.160Z,9.711654
2022-08-12T08:24:32.711Z,9.711656
2022-08-12T08:25:36.145Z,9.711672
2022-08-12T08:26:32.706Z,9.711664
2022-08-12T08:27:32.710Z,9.711672
2022-08-12T08:28:33.476Z,9.711666
2022-08-12T08:29:32.667Z,9.711638
2022-08-12T08:30:32.684Z,9.711641
2022-08-12T08:31:32.672Z,9.711714
2022-08-12T08:32:32.647Z,9.711679
2022-08-12T08:34:05.038Z,9.711624
2022-08-12T08:34:53.997Z,9.711576
2022-08-12T08:35:46.455Z,9.711562
2022-08-12T08:36:33.623Z,9.711639
2022-08-12T08:37:33.444Z,9.711622
2022-08-12T08:38:35.369Z,9.711669
2022-08-12T08:39:33.656Z,9.711649
2022-08-12T08:40:32.580Z,9.711677
2022-08-12T08:42:16.101Z,9.711628
2022-08-12T08:42:33.588Z,9.711637
2022-08-12T08:43:44.250Z,9.711700
2022-08-12T08:44:33.546Z,9.711698
2022-08-12T08:45:32.537Z,9.711713
2022-08-12T08:46:32.551Z,9.711761
2022-08-12T08:47:32.547Z,9.711849
2022-08-12T08:48:32.520Z,9.711555
2022-08-12T08:49:32.511Z,9.711750
2022-08-12T08:50:32.505Z,9.711869
2022-08-12T08:51:32.502Z,9.712116
2022-08-12T08:52:39.732Z,9.711947
2022-08-12T08:53:33.498Z,9.712087
2022-08-12T08:54:32.474Z,9.712105
2022-08-12T08:56:01.307Z,9.712044
2022-08-12T08:56:34.476Z,9.711965
2022-08-12T08:57:44.080Z,9.711864
2022-08-12T08:58:34.455Z,9.711909
2022-08-12T08:59:32.444Z,9.711527
2022-08-12T09:00:32.438Z,9.711669
2022-08-12T09:01:37.888Z,9.711574
2022-08-12T09:02:34.064Z,9.711732
2022-08-12T09:05:08.301Z,9.711709
2022-08-12T09:05:12.245Z,9.711617
2022-08-12T09:06:01.484Z,9.711551
2022-08-12T09:06:37.917Z,9.711617
2022-08-12T09:07:51.628Z,9.711637
2022-08-12T09:08:33.417Z,9.711693
2022-08-12T09:10:01.397Z,9.711695
2022-08-12T09:10:33.353Z,9.711707
2022-08-12T09:12:07.198Z,9.711700
2022-08-12T09:12:33.345Z,9.711630
2022-08-12T09:14:10.906Z,9.711631
2022-08-12T09:14:33.330Z,9.711616
2022-08-12T09:15:35.683Z,9.711634
2022-08-12T09:16:32.837Z,9.711584
2022-08-12T09:17:42.795Z,9.711537
2022-08-12T09:18:34.070Z,9.711631
2022-08-12T09:19:32.284Z,9.711624
2022-08-12T09:20:32.331Z,9.711635
2022-08-12T09:21:54.779Z,9.711590
2022-08-12T09:22:35.138Z,9.711595
2022-08-12T09:23:59.871Z,9.711631
2022-08-12T09:24:33.240Z,9.711611
2022-08-12T09:26:45.940Z,9.711655
2022-08-12T09:28:04.366Z,9.711644
2022-08-12T09:28:33.223Z,9.711649
2022-08-12T09:30:11.581Z,9.711666
2022-08-12T09:30:42.292Z,9.711696
2022-08-12T09:32:03.728Z,9.711655
2022-08-12T09:33:04.379Z,9.711693
2022-08-12T09:34:25.591Z,9.711690
2022-08-12T09:34:34.045Z,9.711637
2022-08-12T09:35:33.179Z,9.711716
2022-08-12T09:36:57.827Z,9.711720
2022-08-12T09:37:57.989Z,9.711630
2022-08-12T09:38:33.134Z,9.711652
2022-08-12T09:40:05.678Z,9.711688
2022-08-12T09:40:57.288Z,9.711622
2022-08-12T09:42:09.703Z,9.711645
2022-08-12T09:42:43.434Z,9.711649
2022-08-12T09:43:33.149Z,9.711678
2022-08-12T09:44:38.886Z,9.711766
2022-08-12T09:46:11.176Z,9.711664
2022-08-12T09:46:34.560Z,9.711654
2022-08-12T09:47:33.447Z,9.711624
2022-08-12T09:48:34.988Z,9.711612
2022-08-12T09:49:32.052Z,9.711682
2022-08-12T09:50:32.046Z,9.711655
2022-08-12T09:51:37.646Z,9.711494
2022-08-12T09:52:33.033Z,9.711612
2022-08-12T09:54:33.713Z,9.711639
2022-08-12T09:54:35.449Z,9.711652
2022-08-12T09:56:05.696Z,9.711707
2022-08-12T09:56:58.682Z,9.711658
2022-08-12T09:58:46.933Z,9.711748
2022-08-12T09:58:57.854Z,9.711654
2022-08-12T10:00:17.382Z,9.711556
2022-08-12T10:00:43.269Z,9.711660
2022-08-12T10:01:35.380Z,9.711732
2022-08-12T10:02:43.054Z,9.711677
2022-08-12T10:03:33.255Z,9.711535
2022-08-12T10:04:31.989Z,9.711633
2022-08-12T10:06:26.194Z,9.711717
2022-08-12T10:06:36.321Z,9.711720
2022-08-12T10:07:40.082Z,9.711718
2022-08-12T10:08:32.890Z,9.711796
2022-08-12T10:09:58.071Z,9.711607
2022-08-12T10:10:32.887Z,9.711617
2022-08-12T10:12:10.443Z,9.711740
2022-08-12T10:12:33.669Z,9.711782
2022-08-12T10:13:36.874Z,9.711555
2022-08-12T10:14:34.385Z,9.711576
2022-08-12T10:16:02.144Z,9.711573
2022-08-12T10:16:39.169Z,9.711836
2022-08-12T10:17:33.822Z,9.711883
2022-08-12T10:18:51.848Z,9.711703
2022-08-12T10:19:36.370Z,9.711809
2022-08-12T10:20:35.542Z,9.711724
2022-08-12T10:21:36.517Z,9.711748
2022-08-12T10:22:36.669Z,9.711853
2022-08-12T10:23:39.317Z,9.712116
2022-08-12T10:24:32.766Z,9.711604
2022-08-12T10:26:33.985Z,9.711593
2022-08-12T10:26:37.309Z,9.711560
2022-08-12T10:28:04.062Z,9.711597
2022-08-12T10:28:32.742Z,9.711596
2022-08-12T10:30:01.285Z,9.711606
2022-08-12T10:30:39.929Z,9.711622
2022-08-12T10:31:46.864Z,9.711646
2022-08-12T10:32:45.135Z,9.711620
2022-08-12T10:33:32.698Z,9.711612
2022-08-12T10:34:32.681Z,9.711589
2022-08-12T10:35:38.313Z,9.711551
2022-08-12T10:36:39.898Z,9.711622
2022-08-12T10:38:34.847Z,9.711555
2022-08-12T10:38:41.092Z,9.711603
2022-08-12T10:40:02.817Z,9.711598
2022-08-12T10:40:37.707Z,9.711565
2022-08-12T10:41:58.786Z,9.711626
2022-08-12T10:42:32.626Z,9.711662
2022-08-12T10:43:55.237Z,9.711686
2022-08-12T10:44:32.612Z,9.711708
2022-08-12T10:45:31.624Z,9.711700
2022-08-12T10:46:32.056Z,9.711652
2022-08-12T10:48:19.638Z,9.711609
2022-08-12T10:48:34.788Z,9.711655
2022-08-12T10:50:02.793Z,9.711709
2022-08-12T10:51:01.465Z,9.711571
2022-08-12T10:52:04.853Z,9.711601
2022-08-12T10:52:37.931Z,9.711598
2022-08-12T10:53:45.018Z,9.711684
2022-08-12T10:54:34.121Z,9.711646
2022-08-12T10:55:31.521Z,9.711657
2022-08-12T10:56:34.598Z,9.711612
2022-08-12T10:58:15.559Z,9.711640
2022-08-12T10:58:32.505Z,9.711772
2022-08-12T11:00:29.079Z,9.711715
2022-08-12T11:00:35.582Z,9.711829
2022-08-12T11:04:16.847Z,9.711686
2022-08-12T11:04:27.370Z,9.711556
2022-08-12T11:04:32.101Z,9.711635
2022-08-12T11:04:45.292Z,9.711532
2022-08-12T11:07:06.571Z,9.711865
2022-08-12T11:07:08.653Z,9.711727
2022-08-12T11:08:35.971Z,9.711676
2022-08-12T11:08:42.934Z,9.711709
2022-08-12T11:09:42.038Z,9.711631
2022-08-12T11:10:33.074Z,9.711849
2022-08-12T11:12:35.094Z,9.711795
2022-08-12T11:12:55.346Z,9.711887
2022-08-12T11:13:45.752Z,9.711805
2022-08-12T11:14:49.357Z,9.711926
2022-08-12T11:16:02.914Z,9.711748
2022-08-12T11:16:31.362Z,9.711707
2022-08-12T11:17:52.808Z,9.711759
2022-08-12T11:18:32.344Z,9.711737
2022-08-12T11:19:31.332Z,9.711782
2022-08-12T11:20:35.131Z,9.711809
2022-08-12T11:21:58.273Z,9.711777
2022-08-12T11:22:35.036Z,9.711784
2022-08-12T11:23:36.849Z,9.711650
2022-08-12T11:24:35.479Z,9.711667
2022-08-12T11:25:42.293Z,9.711695
2022-08-12T11:26:34.056Z,9.711766
2022-08-12T11:27:31.375Z,9.711614
2022-08-12T11:28:33.290Z,9.711455
2022-08-12T11:30:02.529Z,9.711733
2022-08-12T11:30:32.247Z,9.711782
2022-08-12T11:31:55.988Z,9.711992
2022-08-12T11:32:39.114Z,9.711674
2022-08-12T11:34:04.544Z,9.711480
2022-08-12T11:34:51.882Z,9.711531
2022-08-12T11:35:32.213Z,9.711497
2022-08-12T11:36:31.204Z,9.711543
2022-08-12T11:37:31.160Z,9.711630
2022-08-12T11:38:32.172Z,9.711681
2022-08-12T11:40:03.035Z,9.711808
2022-08-12T11:40:32.132Z,9.711804
2022-08-12T11:41:32.900Z,9.711743
2022-08-12T11:42:46.047Z,9.711802
2022-08-12T11:43:32.216Z,9.711843
2022-08-12T11:44:36.644Z,9.711860
2022-08-12T11:45:38.962Z,9.712049
2022-08-12T11:46:32.109Z,9.711988
2022-08-12T11:47:31.151Z,9.711860
2022-08-12T11:48:51.530Z,9.711815
2022-08-12T11:49:32.840Z,9.711691
2022-08-12T11:50:32.435Z,9.711712
2022-08-12T11:51:36.468Z,9.711699
2022-08-12T11:52:55.844Z,9.711753
2022-08-12T11:53:59.000Z,9.711681
2022-08-12T11:54:32.081Z,9.711764
2022-08-12T11:55:31.036Z,9.711909
2022-08-12T11:56:38.605Z,9.711691
2022-08-12T11:58:07.494Z,9.711760
2022-08-12T11:59:08.459Z,9.711746
2022-08-12T12:02:02.015Z,9.711749
2022-08-12T12:02:32.076Z,9.711730